^^
Station Historical Data
Daily Summary for April 17, 2018 Units:  Metric    English   Both
« Previous Day
Next Day »
Daily Weekly Monthly Yearly Custom
  High: Low: Average:
Temperature: -17.8 °C 2.3 °C 4.8 °C
Dew Point: -17.8 °C -2.4 °C -0.3 °C
Humidity: Humidity% 57% 69%
Wind Speed: 0km/h 0km/h 5.1km/h
Wind Gust: 0km/h - -
Wind- - SW
Pressure: 0 hPa 1002.6 hPa -
Precipitation: 0 mm    
Historical Graphs
 
 
Tabular Data for April 17, 2018
Time Temperature Dew Point Pressure Wind Wind Speed Wind Gust Humidity Rainfall Rate (Hourly) Conditions
-17.8 °C -17.8 °C 0 hPa Calm     Humidity% 0 mm Conditions
00:04 7 °C 3.4 °C 1002.6 hPa WSW 4.8 km/h 22.5 km/h 78% 0 mm RA
00:19 6.8 °C 3.1 °C 1002.6 hPa WSW 4.8 km/h 32.2 km/h 77% 0 mm SCT
00:34 6.7 °C 2.2 °C 1002.9 hPa SW 1.6 km/h 19.3 km/h 73% 0 mm SCT
00:49 6.6 °C 1.9 °C 1002.9 hPa South 1.6 km/h 22.5 km/h 72% 0 mm SCT
01:04 6.3 °C 1.8 °C 1002.9 hPa WSW 3.2 km/h 12.9 km/h 73% 0 mm SCT
01:19 6.1 °C 1.8 °C 1002.9 hPa SSW 3.2 km/h 9.7 km/h 74% 0 mm SCT
01:34 6.1 °C 1.6 °C 1002.9 hPa WSW 4.8 km/h 16.1 km/h 73% 0 mm SCT
01:49 6.1 °C 1.6 °C 1002.6 hPa WSW 3.2 km/h 14.5 km/h 73% 0 mm SCT
02:04 6 °C 1.5 °C 1002.9 hPa WSW 1.6 km/h 16.1 km/h 73% 0 mm OVC
02:19 6 °C 1.3 °C 1003.3 hPa SW 3.2 km/h 25.7 km/h 72% 0 mm OVC
02:34 5.9 °C 1.1 °C 1003.3 hPa WSW 9.7 km/h 19.3 km/h 71% 0 mm OVC
02:49 5.8 °C 0.8 °C 1003.3 hPa SSW 3.2 km/h 16.1 km/h 70% 0 mm OVC
03:04 5.7 °C 0.7 °C 1002.9 hPa WSW 4.8 km/h 20.9 km/h 70% 0 mm BKN
03:19 5.6 °C 0.9 °C 1002.9 hPa Calm   12.9 km/h 72% 0 mm BKN
03:34 5.5 °C 0.7 °C 1003.3 hPa SSW 1.6 km/h 22.5 km/h 71% 0 mm BKN
03:49 5.4 °C 0.7 °C 1003.3 hPa SW 4.8 km/h 19.3 km/h 72% 0 mm BKN
04:04 5.3 °C 0.5 °C 1003.3 hPa SW 3.2 km/h 20.9 km/h 71% 0 mm FEW
04:19 5.2 °C 0.6 °C 1003.3 hPa SW 3.2 km/h 14.5 km/h 72% 0 mm FEW
04:34 5.1 °C 1.1 °C 1003.3 hPa SSW 3.2 km/h 11.3 km/h 75% 0 mm FEW
04:49 4.9 °C 1.2 °C 1003.3 hPa SW 8 km/h 12.9 km/h 77% 0 mm FEW
05:04 4.8 °C 1.1 °C 1003.3 hPa SW 3.2 km/h 14.5 km/h 77% 0 mm FEW
05:19 4.8 °C 1.1 °C 1003.3 hPa SW 4.8 km/h 19.3 km/h 77% 0 mm FEW
05:34 4.5 °C 1.5 °C 1003.3 hPa SW 3.2 km/h 14.5 km/h 81% 0 mm FEW
05:49 4 °C 1.7 °C 1003.3 hPa SW 9.7 km/h 19.3 km/h 85% 0 mm FEW
06:04 3.7 °C 1.6 °C 1003.6 hPa SSW 4.8 km/h 22.5 km/h 86% 0 mm SCT
06:19 3.7 °C 1.4 °C 1003.6 hPa SW 3.2 km/h 14.5 km/h 85% 0 mm SCT
06:34 3.7 °C 0.9 °C 1003.6 hPa SW 4.8 km/h 16.1 km/h 82% 0 mm SCT
06:49 3.9 °C 0.4 °C 1003.9 hPa South 3.2 km/h 16.1 km/h 78% 0 mm SCT
07:04 3.9 °C 0.3 °C 1003.9 hPa WSW 3.2 km/h 19.3 km/h 77% 0 mm BKN
07:19 3.9 °C 0.1 °C 1004.3 hPa SSW 3.2 km/h 12.9 km/h 76% 0 mm BKN
07:34 4.1 °C 0.6 °C 1004.3 hPa SW 9.7 km/h 19.3 km/h 78% 0 mm BKN
07:49 4.1 °C 0.9 °C 1004.6 hPa WSW 4.8 km/h 16.1 km/h 80% 0 mm BKN
08:04 4.2 °C 1.2 °C 1004.6 hPa WSW 8 km/h 12.9 km/h 81% 0 mm BKN
08:19 4.4 °C 1.6 °C 1004.6 hPa WSW 3.2 km/h 12.9 km/h 82% 0 mm BKN
08:34 4.4 °C 0.9 °C 1004.6 hPa SW 4.8 km/h 12.9 km/h 78% 0 mm BKN
08:49 4.6 °C 0.5 °C 1004.6 hPa WSW 3.2 km/h 19.3 km/h 75% 0 mm BKN
09:04 4.7 °C 0.2 °C 1004.6 hPa SW 9.7 km/h 19.3 km/h 73% 0 mm -RA
09:19 4.9 °C 0.4 °C 1005 hPa WSW 11.3 km/h 20.9 km/h 73% 0 mm -RA
09:34 5.1 °C 0.2 °C 1004.6 hPa SW 4.8 km/h 24.1 km/h 71% 0 mm -RA
09:49 5.3 °C -0.1 °C 1004.6 hPa WSW 9.7 km/h 19.3 km/h 68% 0 mm -RA
10:04 5.5 °C 0.1 °C 1004.6 hPa WSW 4.8 km/h 14.5 km/h 68% 0 mm -RA
10:19 5.6 °C -0.3 °C 1004.6 hPa WSW 1.6 km/h 20.9 km/h 66% 0 mm -RA
10:34 5.9 °C -0.4 °C 1004.6 hPa SW 9.7 km/h 22.5 km/h 64% 0 mm -RA
10:49 6.3 °C -0.2 °C 1004.6 hPa WSW 11.3 km/h 20.9 km/h 63% 0 mm -RA
11:04 6.6 °C -0.2 °C 1004.3 hPa SW 9.7 km/h 20.9 km/h 62% 0 mm BKN
11:19 6.8 °C -0.2 °C 1004.3 hPa SW 8 km/h 19.3 km/h 61% 0 mm BKN
11:34 6.7 °C -0.6 °C 1003.9 hPa SW 8 km/h 20.9 km/h 60% 0 mm BKN
11:49 6.7 °C -0.5 °C 1003.9 hPa WSW 3.2 km/h 24.1 km/h 60% 0 mm BKN
12:04 6.6 °C -0.7 °C 1003.9 hPa WSW 4.8 km/h 25.7 km/h 60% 0 mm BKN
12:19 6.6 °C -0.9 °C 1003.9 hPa WSW 11.3 km/h 20.9 km/h 59% 0 mm BKN
12:34 7 °C -0.5 °C 1003.6 hPa WSW 12.9 km/h 19.3 km/h 59% 0 mm BKN
12:49 7.3 °C -0.4 °C 1003.6 hPa SW 9.7 km/h 22.5 km/h 58% 0 mm BKN
13:04 6.8 °C -0.8 °C 1003.6 hPa SSW 9.7 km/h 25.7 km/h 58% 0 mm BKN
13:19 6.6 °C -0.4 °C 1003.6 hPa WSW 3.2 km/h 19.3 km/h 61% 0 mm BKN
13:34 6.8 °C -1.1 °C 1003.6 hPa WSW 8 km/h 20.9 km/h 57% 0 mm BKN
13:49 6.5 °C -1.4 °C 1003.6 hPa WSW 8 km/h 24.1 km/h 57% 0 mm BKN
14:04 6.8 °C -1.2 °C 1003.3 hPa SW 4.8 km/h 19.3 km/h 57% 0 mm BKN
14:19 6.7 °C -1 °C 1003.3 hPa SW 9.7 km/h 19.3 km/h 58% 0 mm BKN
14:34 6.2 °C -1.1 °C 1003.3 hPa SW 4.8 km/h 22.5 km/h 60% 0 mm BKN
14:49 6.2 °C -1.1 °C 1003.6 hPa SW 8 km/h 24.1 km/h 60% 0 mm BKN
15:04 6.1 °C -1.4 °C 1003.6 hPa West 11.3 km/h 24.1 km/h 59% 0 mm BKN
15:19 6 °C -1.4 °C 1003.6 hPa WSW 3.2 km/h 24.1 km/h 59% 0 mm BKN
15:34 6.2 °C -1.3 °C 1003.3 hPa SSW 4.8 km/h 14.5 km/h 59% 0 mm BKN
15:49 5.9 °C -1.7 °C 1003.6 hPa WSW 4.8 km/h 24.1 km/h 58% 0 mm BKN
16:04 5.6 °C -1.8 °C 1003.6 hPa SW 12.9 km/h 29 km/h 59% 0 mm BKN
16:19 5.4 °C -1.7 °C 1003.3 hPa WSW 8 km/h 29 km/h 60% 0 mm BKN
16:34 5.4 °C -1.7 °C 1003.6 hPa SW 8 km/h 24.1 km/h 60% 0 mm BKN
16:49 5.5 °C -1.2 °C 1003.6 hPa West 3.2 km/h 14.5 km/h 62% 0 mm BKN
17:04 5.6 °C -1.3 °C 1003.6 hPa SW 3.2 km/h 14.5 km/h 61% 0 mm BKN
17:19 5.8 °C -1.3 °C 1003.6 hPa SW 3.2 km/h 9.7 km/h 60% 0 mm BKN
17:34 5.8 °C -1.4 °C 1003.9 hPa WSW 4.8 km/h 22.5 km/h 60% 0 mm BKN
17:49 5.5 °C -1.9 °C 1003.9 hPa West 3.2 km/h 20.9 km/h 59% 0 mm BKN
18:04 5.4 °C -2 °C 1003.9 hPa SSW 3.2 km/h 14.5 km/h 59% 0 mm BKN
18:19 5.3 °C -1.8 °C 1004.3 hPa SW 8 km/h 19.3 km/h 60% 0 mm BKN
18:34 4.6 °C -0.6 °C 1004.6 hPa WSW 8 km/h 19.3 km/h 69% 0 mm BKN
18:49 3.6 °C -0.3 °C 1005 hPa SW 4.8 km/h 27.4 km/h 76% 0 mm BKN
19:04 3.4 °C -0.1 °C 1005.3 hPa SW 11.3 km/h 24.1 km/h 78% 0 mm -RA
19:19 3.2 °C -0.8 °C 1005.3 hPa SW 4.8 km/h 25.7 km/h 75% 0 mm -RA
19:34 3.3 °C -0.7 °C 1005.3 hPa SSW 3.2 km/h 11.3 km/h 75% 0 mm -RA
19:49 3.5 °C -1.1 °C 1005.6 hPa SSW 1.6 km/h 16.1 km/h 72% 0 mm -RA
20:04 3.5 °C -1.1 °C 1005.6 hPa SW 8 km/h 14.5 km/h 72% 0 mm OVC
20:19 3.5 °C -1.1 °C 1006 hPa WSW 1.6 km/h 19.3 km/h 72% 0 mm OVC
20:34 3.5 °C -1.1 °C 1006.3 hPa WSW 3.2 km/h 14.5 km/h 72% 0 mm OVC
20:49 3.4 °C -0.9 °C 1006.3 hPa WSW 4.8 km/h 16.1 km/h 73% 0 mm OVC
21:04 3.2 °C -0.4 °C 1006.7 hPa Calm   20.9 km/h 77% 0 mm -RA
21:19 2.8 °C -0.3 °C 1006.7 hPa Calm   12.9 km/h 80% 0 mm -RA
21:34 2.6 °C -0.2 °C 1007 hPa Calm   6.4 km/h 82% 0 mm -RA
21:49 2.7 °C -0.4 °C 1007 hPa Calm   14.5 km/h 80% 0 mm -RA
22:04 2.8 °C -0.6 °C 1007 hPa WSW 8 km/h 14.5 km/h 78% 0 mm -RA
22:19 2.9 °C -1.1 °C 1007 hPa SW 3.2 km/h 14.5 km/h 75% 0 mm -RA
22:34 2.9 °C -1.2 °C 1007 hPa SW 3.2 km/h 12.9 km/h 74% 0 mm -RA
22:49 2.9 °C -1.1 °C 1007 hPa SW 1.6 km/h 11.3 km/h 75% 0 mm -RA
23:04 2.8 °C -1.2 °C 1007 hPa SW 1.6 km/h 12.9 km/h 75% 0 mm BKN
23:19 3.1 °C -1.3 °C 1007.3 hPa SW 3.2 km/h 19.3 km/h 73% 0 mm BKN
23:34 2.6 °C -1.2 °C 1007.3 hPa SW 8 km/h 19.3 km/h 76% 0 mm BKN
23:49 2.3 °C -2.4 °C 1007.3 hPa SW 1.6 km/h 19.3 km/h 71% 0 mm BKN
TarryTown NY Weather
Compliments of Weather Underground - 1.5 mb